createdAt,value
2017-05-16T00:00:27.659Z,20.4
2017-05-16T00:01:35.746Z,20.4
2017-05-16T00:02:43.831Z,20.3
2017-05-16T00:03:51.917Z,20.4
2017-05-16T00:05:00.012Z,20.4
2017-05-16T00:06:08.091Z,20.4
2017-05-16T00:07:16.173Z,20.4
2017-05-16T00:08:24.260Z,20.3
2017-05-16T00:09:32.346Z,20.3
2017-05-16T00:10:40.432Z,20.3
2017-05-16T00:11:48.586Z,20.3
2017-05-16T00:12:56.610Z,20.3
2017-05-16T00:14:04.695Z,20.3
2017-05-16T00:15:12.782Z,20.2
2017-05-16T00:16:20.865Z,20.3
2017-05-16T00:17:28.949Z,20.3
2017-05-16T00:18:37.035Z,20.3
2017-05-16T00:19:45.121Z,20.2
2017-05-16T00:20:53.208Z,20.3
2017-05-16T00:22:01.297Z,20.3
2017-05-16T00:23:09.379Z,20.3
2017-05-16T00:24:17.466Z,20.2
2017-05-16T00:25:25.549Z,20.2
2017-05-16T00:26:33.634Z,20.2
2017-05-16T00:27:41.724Z,20.2
2017-05-16T00:28:49.807Z,20.3
2017-05-16T00:29:57.892Z,20.2
2017-05-16T00:31:05.976Z,20.2
2017-05-16T00:32:14.062Z,20.2
2017-05-16T00:33:22.148Z,20.2
2017-05-16T00:34:30.240Z,20.2
2017-05-16T00:35:38.318Z,20.3
2017-05-16T00:36:46.404Z,20.1
2017-05-16T00:37:54.489Z,20.2
2017-05-16T00:39:02.572Z,20.2
2017-05-16T00:40:10.662Z,20.1
2017-05-16T00:41:18.751Z,20.2
2017-05-16T00:42:26.894Z,20.2
2017-05-16T00:43:34.919Z,20.3
2017-05-16T00:44:43.031Z,20.2
2017-05-16T00:45:51.092Z,20.2
2017-05-16T00:46:59.174Z,20.1
2017-05-16T00:48:07.260Z,20.2
2017-05-16T00:49:15.346Z,20.2
2017-05-16T00:50:23.432Z,20.1
2017-05-16T00:51:31.518Z,20.2
2017-05-16T00:52:39.606Z,20.2
2017-05-16T00:53:47.689Z,20.2
2017-05-16T00:54:55.775Z,20.1
2017-05-16T00:56:03.859Z,20.1
2017-05-16T00:57:11.945Z,20.1
2017-05-16T00:58:20.031Z,20.2
2017-05-16T00:59:28.119Z,20.2
2017-05-16T01:00:36.202Z,20.1
2017-05-16T01:01:44.289Z,20.1
2017-05-16T01:02:52.377Z,20.1
2017-05-16T01:04:00.460Z,20.1
2017-05-16T01:05:08.544Z,20.1
2017-05-16T01:06:16.630Z,20.0
2017-05-16T01:07:24.714Z,20.1
2017-05-16T01:08:32.856Z,20.0
2017-05-16T01:09:40.885Z,20.0
2017-05-16T01:10:48.973Z,20.1
2017-05-16T01:11:57.057Z,20.1
2017-05-16T01:13:05.142Z,20.0
2017-05-16T01:14:13.229Z,20.1
2017-05-16T01:15:21.314Z,20.1
2017-05-16T01:16:29.719Z,20.0
2017-05-16T01:17:37.484Z,20.1
2017-05-16T01:18:45.573Z,20.1
2017-05-16T01:19:53.656Z,20.1
2017-05-16T01:21:01.766Z,20.1
2017-05-16T01:22:09.827Z,20.1
2017-05-16T01:23:17.913Z,20.0
2017-05-16T01:24:26.004Z,20.1
2017-05-16T01:25:34.083Z,20.1
2017-05-16T01:26:42.171Z,20.0
2017-05-16T01:27:50.253Z,20.1
2017-05-16T01:28:58.603Z,20.0
2017-05-16T01:30:06.900Z,20.0
2017-05-16T01:31:14.513Z,20.0
2017-05-16T01:32:22.597Z,20.1
2017-05-16T01:33:31.113Z,20.0
2017-05-16T01:34:38.894Z,20.0
2017-05-16T01:35:47.286Z,20.0
2017-05-16T01:36:54.955Z,20.0
2017-05-16T01:38:03.024Z,20.0
2017-05-16T01:39:11.726Z,20.0
2017-05-16T01:40:19.197Z,20.0
2017-05-16T01:41:27.780Z,20.0
2017-05-16T01:42:35.372Z,19.9
2017-05-16T01:43:43.463Z,20.0
2017-05-16T01:44:51.548Z,20.0
2017-05-16T01:46:00.180Z,19.9
2017-05-16T01:47:07.723Z,20.0
2017-05-16T01:48:16.418Z,20.0
2017-05-16T01:49:23.891Z,20.0
2017-05-16T01:50:32.655Z,20.0
2017-05-16T01:51:40.631Z,20.0
2017-05-16T01:52:48.147Z,19.9
2017-05-16T01:53:56.234Z,20.0
2017-05-16T01:55:04.324Z,20.0
2017-05-16T01:56:12.406Z,20.0
2017-05-16T01:57:20.721Z,19.9
2017-05-16T01:58:28.577Z,20.0
2017-05-16T01:59:36.662Z,19.9
2017-05-16T02:00:44.751Z,19.9
2017-05-16T02:01:52.832Z,19.9
2017-05-16T02:03:01.377Z,19.9
2017-05-16T02:04:09.002Z,19.9
2017-05-16T02:05:17.092Z,19.9
2017-05-16T02:06:25.178Z,19.9
2017-05-16T02:07:33.264Z,19.9
2017-05-16T02:08:41.349Z,19.9
2017-05-16T02:09:50.012Z,19.9
2017-05-16T02:10:57.810Z,19.9
2017-05-16T02:12:05.603Z,19.8
2017-05-16T02:13:13.688Z,19.9
2017-05-16T02:14:22.128Z,19.9
2017-05-16T02:15:29.947Z,19.9
2017-05-16T02:16:37.951Z,19.9
2017-05-16T02:17:46.512Z,19.9
2017-05-16T02:18:54.123Z,19.8
2017-05-16T02:20:02.758Z,19.9
2017-05-16T02:21:10.291Z,19.9
2017-05-16T02:22:18.868Z,19.9
2017-05-16T02:23:27.336Z,19.9
2017-05-16T02:24:34.549Z,19.7
2017-05-16T02:25:42.878Z,19.8
2017-05-16T02:26:50.721Z,19.8
2017-05-16T02:27:58.812Z,19.7
2017-05-16T02:29:07.204Z,19.8
2017-05-16T02:30:15.215Z,19.8
2017-05-16T02:31:23.260Z,19.7
2017-05-16T02:32:31.191Z,19.7
2017-05-16T02:33:39.773Z,19.7
2017-05-16T02:34:47.974Z,19.7
2017-05-16T02:35:55.558Z,19.7
2017-05-16T02:37:03.486Z,19.8
2017-05-16T02:38:12.014Z,19.7
2017-05-16T02:39:19.972Z,19.7
2017-05-16T02:40:27.841Z,19.8
2017-05-16T02:41:36.448Z,19.7
2017-05-16T02:42:43.914Z,19.8
2017-05-16T02:43:52.107Z,19.7
2017-05-16T02:45:00.208Z,19.7
2017-05-16T02:46:08.195Z,19.7
2017-05-16T02:47:16.254Z,19.6
2017-05-16T02:48:24.341Z,19.7
2017-05-16T02:49:32.426Z,19.7
2017-05-16T02:50:40.509Z,19.7
2017-05-16T02:51:48.594Z,19.7
2017-05-16T02:52:56.680Z,19.7
2017-05-16T02:54:04.766Z,19.7
2017-05-16T02:55:12.850Z,19.7
2017-05-16T02:56:20.937Z,19.7
2017-05-16T02:57:29.026Z,19.7
2017-05-16T02:58:37.152Z,19.7
2017-05-16T02:59:45.192Z,19.7
2017-05-16T03:00:53.277Z,19.6
2017-05-16T03:02:01.363Z,19.7
2017-05-16T03:03:09.448Z,19.7
2017-05-16T03:04:17.535Z,19.7
2017-05-16T03:05:25.620Z,19.7
2017-05-16T03:06:33.704Z,19.7
2017-05-16T03:07:41.790Z,19.6
2017-05-16T03:08:49.876Z,19.6
2017-05-16T03:09:57.962Z,19.6
2017-05-16T03:11:06.044Z,19.7
2017-05-16T03:12:14.131Z,19.7
2017-05-16T03:13:22.215Z,19.6
2017-05-16T03:14:30.297Z,19.7
2017-05-16T03:15:38.386Z,19.7
2017-05-16T03:16:46.470Z,19.7
2017-05-16T03:17:54.561Z,19.7
2017-05-16T03:19:02.640Z,19.7
2017-05-16T03:20:10.723Z,19.6
2017-05-16T03:21:18.809Z,19.6
2017-05-16T03:22:26.895Z,19.6
2017-05-16T03:23:34.981Z,19.6
2017-05-16T03:24:43.070Z,19.6
2017-05-16T03:25:51.150Z,19.7
2017-05-16T03:26:59.238Z,19.5
2017-05-16T03:28:07.321Z,19.6
2017-05-16T03:29:15.408Z,19.6
2017-05-16T03:30:23.492Z,19.6
2017-05-16T03:31:31.583Z,19.6
2017-05-16T03:32:39.668Z,19.6
2017-05-16T03:33:47.755Z,19.6
2017-05-16T03:34:55.838Z,19.6
2017-05-16T03:36:03.926Z,19.6
2017-05-16T03:37:12.008Z,19.5
2017-05-16T03:38:20.094Z,19.5
2017-05-16T03:39:28.177Z,19.6
2017-05-16T03:40:36.263Z,19.6
2017-05-16T03:41:44.349Z,19.6
2017-05-16T03:42:52.435Z,19.6
2017-05-16T03:44:00.519Z,19.5
2017-05-16T03:45:08.605Z,19.6
2017-05-16T03:46:16.689Z,19.5
2017-05-16T03:47:24.821Z,19.6
2017-05-16T03:48:32.858Z,19.6
2017-05-16T03:49:40.945Z,19.5
2017-05-16T03:50:49.033Z,19.5
2017-05-16T03:51:57.114Z,19.6
2017-05-16T03:53:05.208Z,19.6
2017-05-16T03:54:13.349Z,19.6
2017-05-16T03:55:21.376Z,19.6
2017-05-16T03:56:29.461Z,19.5
2017-05-16T03:57:37.543Z,19.5
2017-05-16T03:58:45.627Z,19.6
2017-05-16T03:59:53.713Z,19.4
2017-05-16T04:01:01.800Z,19.5
2017-05-16T04:02:09.893Z,19.4
2017-05-16T04:03:18.003Z,19.5
2017-05-16T04:04:26.061Z,19.4
2017-05-16T04:05:34.147Z,19.5
2017-05-16T04:06:42.230Z,19.5
2017-05-16T04:07:50.315Z,19.4
2017-05-16T04:08:58.401Z,19.4
2017-05-16T04:10:06.495Z,19.5
2017-05-16T04:11:14.580Z,19.4
2017-05-16T04:12:22.668Z,19.4
2017-05-16T04:13:30.752Z,19.4
2017-05-16T04:14:38.835Z,19.5
2017-05-16T04:15:46.946Z,19.4
2017-05-16T04:16:55.008Z,19.4
2017-05-16T04:18:03.089Z,19.4
2017-05-16T04:19:11.176Z,19.4
2017-05-16T04:20:19.381Z,19.4
2017-05-16T04:21:27.351Z,19.5
2017-05-16T04:22:35.438Z,19.4
2017-05-16T04:23:43.521Z,19.5
2017-05-16T04:24:51.604Z,19.4
2017-05-16T04:25:59.690Z,19.5
2017-05-16T04:27:07.778Z,19.4
2017-05-16T04:28:15.864Z,19.4
2017-05-16T04:29:23.949Z,19.4
2017-05-16T04:30:32.032Z,19.4
2017-05-16T04:31:40.116Z,19.4
2017-05-16T04:32:48.203Z,19.4
2017-05-16T04:33:56.287Z,19.4
2017-05-16T04:35:04.373Z,19.4
2017-05-16T04:36:12.457Z,19.4
2017-05-16T04:37:20.541Z,19.4
2017-05-16T04:38:28.628Z,19.4
2017-05-16T04:39:36.717Z,19.4
2017-05-16T04:40:44.797Z,19.4
2017-05-16T04:41:52.883Z,19.4
2017-05-16T04:43:00.968Z,19.4
2017-05-16T04:44:09.052Z,19.4
2017-05-16T04:45:17.148Z,19.3
2017-05-16T04:46:25.223Z,19.4
2017-05-16T04:47:33.308Z,19.3
2017-05-16T04:48:41.393Z,19.4
2017-05-16T04:49:49.479Z,19.4
2017-05-16T04:50:57.565Z,19.3
2017-05-16T04:52:05.647Z,19.3
2017-05-16T04:53:13.731Z,19.3
2017-05-16T04:54:21.817Z,19.2
2017-05-16T04:55:29.906Z,19.4
2017-05-16T04:56:37.988Z,19.4
2017-05-16T04:57:46.071Z,19.3
2017-05-16T04:58:54.162Z,19.3
2017-05-16T05:00:02.242Z,19.4
2017-05-16T05:01:10.326Z,19.4
2017-05-16T05:02:18.413Z,19.4
2017-05-16T05:03:26.496Z,19.4
2017-05-16T05:04:34.582Z,19.4
2017-05-16T05:05:42.668Z,19.3
2017-05-16T05:06:50.752Z,19.3
2017-05-16T05:07:58.839Z,19.3
2017-05-16T05:09:06.929Z,19.3
2017-05-16T05:10:15.009Z,19.3
2017-05-16T05:11:23.136Z,19.3
2017-05-16T05:12:31.190Z,19.3
2017-05-16T05:13:39.407Z,19.2
2017-05-16T05:14:48.040Z,19.3
2017-05-16T05:15:56.774Z,19.3
2017-05-16T05:17:03.839Z,19.3
2017-05-16T05:18:12.006Z,19.3
2017-05-16T05:19:20.211Z,19.3
2017-05-16T05:20:28.341Z,19.2
2017-05-16T05:21:36.044Z,19.2
2017-05-16T05:22:43.950Z,19.3
2017-05-16T05:23:52.036Z,19.3
2017-05-16T05:25:00.122Z,19.3
2017-05-16T05:26:08.208Z,19.3
2017-05-16T05:27:16.292Z,19.3
2017-05-16T05:28:24.379Z,19.2
2017-05-16T05:29:32.462Z,19.3
2017-05-16T05:30:40.544Z,19.2
2017-05-16T05:31:48.631Z,19.3
2017-05-16T05:32:56.714Z,19.2
2017-05-16T05:34:04.801Z,19.2
2017-05-16T05:35:12.886Z,19.3
2017-05-16T05:36:20.991Z,19.3
2017-05-16T05:37:29.055Z,19.3
2017-05-16T05:38:37.144Z,19.3
2017-05-16T05:39:45.226Z,19.3
2017-05-16T05:40:53.311Z,19.2
2017-05-16T05:42:01.396Z,19.3
2017-05-16T05:43:09.481Z,19.3
2017-05-16T05:44:17.565Z,19.3
2017-05-16T05:45:25.656Z,19.3
2017-05-16T05:46:33.739Z,19.2
2017-05-16T05:47:41.820Z,19.2
2017-05-16T05:48:49.907Z,19.3
2017-05-16T05:49:57.988Z,19.2
2017-05-16T05:51:06.082Z,19.2
2017-05-16T05:52:14.160Z,19.2
2017-05-16T05:53:22.313Z,19.2
2017-05-16T05:54:30.329Z,19.2
2017-05-16T05:55:38.413Z,19.2
2017-05-16T05:56:46.501Z,19.2
2017-05-16T05:57:54.584Z,19.2
2017-05-16T05:59:02.672Z,19.3
2017-05-16T06:00:10.755Z,19.2
2017-05-16T06:01:18.847Z,19.2
2017-05-16T06:02:26.925Z,19.2
2017-05-16T06:03:35.007Z,19.2
2017-05-16T06:04:43.094Z,19.2
2017-05-16T06:05:51.180Z,19.2
2017-05-16T06:06:59.266Z,19.2
2017-05-16T06:08:07.353Z,19.3
2017-05-16T06:09:15.436Z,19.3
2017-05-16T06:10:23.521Z,19.3
2017-05-16T06:11:31.603Z,19.3
2017-05-16T06:12:39.692Z,19.2
2017-05-16T06:13:47.837Z,19.2
2017-05-16T06:14:55.861Z,19.3
2017-05-16T06:16:03.948Z,19.2
2017-05-16T06:17:12.033Z,19.2
2017-05-16T06:18:20.118Z,19.2
2017-05-16T06:19:28.202Z,19.2
2017-05-16T06:20:36.285Z,19.2
2017-05-16T06:21:44.370Z,19.2
2017-05-16T06:22:52.455Z,19.2
2017-05-16T06:24:00.543Z,19.2
2017-05-16T06:25:08.628Z,19.2
2017-05-16T06:26:16.712Z,19.2
2017-05-16T06:27:24.796Z,19.3
2017-05-16T06:28:32.882Z,19.2
2017-05-16T06:29:40.966Z,19.2
2017-05-16T06:30:49.052Z,19.2
2017-05-16T06:31:57.175Z,19.3
2017-05-16T06:33:05.219Z,19.3
2017-05-16T06:34:13.302Z,19.2
2017-05-16T06:35:21.390Z,19.2
2017-05-16T06:36:29.476Z,19.2
2017-05-16T06:37:37.561Z,19.3
2017-05-16T06:38:45.646Z,19.2
2017-05-16T06:39:53.729Z,19.3
2017-05-16T06:41:01.814Z,19.3
2017-05-16T06:42:09.897Z,19.3
2017-05-16T06:43:17.985Z,19.2
2017-05-16T06:44:26.066Z,19.3
2017-05-16T06:45:34.151Z,19.3
2017-05-16T06:46:42.240Z,19.2
2017-05-16T06:47:50.323Z,19.2
2017-05-16T06:48:58.407Z,19.3
2017-05-16T06:50:06.492Z,19.3
2017-05-16T06:51:14.599Z,19.3
2017-05-16T06:52:22.662Z,19.3
2017-05-16T06:53:30.745Z,19.3
2017-05-16T06:54:38.832Z,19.4
2017-05-16T06:55:46.916Z,19.2
2017-05-16T06:56:55.001Z,19.3
2017-05-16T06:58:03.087Z,19.4
2017-05-16T06:59:11.172Z,19.3
2017-05-16T07:00:19.306Z,19.3
2017-05-16T07:01:27.341Z,19.4
2017-05-16T07:02:35.425Z,19.4
2017-05-16T07:03:43.511Z,19.4
2017-05-16T07:04:51.599Z,19.3
2017-05-16T07:05:59.681Z,19.4
2017-05-16T07:07:07.773Z,19.4
2017-05-16T07:08:15.856Z,19.4
2017-05-16T07:09:23.937Z,19.3
2017-05-16T07:10:32.021Z,19.4
2017-05-16T07:11:40.104Z,19.4
2017-05-16T07:12:48.191Z,19.4
2017-05-16T07:13:56.276Z,19.4
2017-05-16T07:15:04.365Z,19.4
2017-05-16T07:16:12.449Z,19.4
2017-05-16T07:17:20.534Z,19.4
2017-05-16T07:18:28.621Z,19.5
2017-05-16T07:19:36.705Z,19.4
2017-05-16T07:20:44.794Z,19.5
2017-05-16T07:21:52.874Z,19.4
2017-05-16T07:23:00.960Z,19.4
2017-05-16T07:24:09.047Z,19.4
2017-05-16T07:25:17.139Z,19.4
2017-05-16T07:26:25.223Z,19.4
2017-05-16T07:27:33.312Z,19.5
2017-05-16T07:28:41.394Z,19.5
2017-05-16T07:29:49.477Z,19.4
2017-05-16T07:30:57.568Z,19.5
2017-05-16T07:32:05.651Z,19.5
2017-05-16T07:33:13.742Z,19.5
2017-05-16T07:34:21.821Z,19.6
2017-05-16T07:35:29.908Z,19.5
2017-05-16T07:36:37.994Z,19.6
2017-05-16T07:37:46.080Z,19.6
2017-05-16T07:38:54.165Z,19.5
2017-05-16T07:40:02.251Z,19.5
2017-05-16T07:41:10.341Z,19.6
2017-05-16T07:42:18.421Z,19.5
2017-05-16T07:43:26.504Z,19.5
2017-05-16T07:44:34.592Z,19.6
2017-05-16T07:45:42.680Z,19.5
2017-05-16T07:46:50.762Z,19.5
2017-05-16T07:47:58.849Z,19.6
2017-05-16T07:49:06.936Z,19.6
2017-05-16T07:50:15.016Z,19.6
2017-05-16T07:51:23.112Z,19.6
2017-05-16T07:52:31.188Z,19.6
2017-05-16T07:53:39.275Z,19.6
2017-05-16T07:54:47.362Z,19.6
2017-05-16T07:55:55.448Z,19.7
2017-05-16T07:57:03.532Z,19.6
2017-05-16T07:58:11.615Z,19.7
2017-05-16T07:59:19.701Z,19.7
2017-05-16T08:00:27.788Z,19.7
2017-05-16T08:01:35.874Z,19.6
2017-05-16T08:02:43.962Z,19.7
2017-05-16T08:03:52.046Z,19.6
2017-05-16T08:05:00.132Z,19.7
2017-05-16T08:06:08.216Z,19.7
2017-05-16T08:07:16.307Z,19.6
2017-05-16T08:08:24.391Z,19.7
2017-05-16T08:09:32.478Z,19.7
2017-05-16T08:10:40.560Z,19.7
2017-05-16T08:11:48.651Z,19.7
2017-05-16T08:12:56.735Z,19.7
2017-05-16T08:14:04.844Z,19.7
2017-05-16T08:15:12.910Z,19.7
2017-05-16T08:16:20.994Z,19.7
2017-05-16T08:17:29.078Z,19.7
2017-05-16T08:18:37.169Z,19.8
2017-05-16T08:19:45.251Z,19.7
2017-05-16T08:20:53.377Z,19.7
2017-05-16T08:22:01.427Z,19.7
2017-05-16T08:23:09.516Z,19.8
2017-05-16T08:24:17.602Z,19.8
2017-05-16T08:25:25.682Z,19.8
2017-05-16T08:26:33.767Z,19.7
2017-05-16T08:27:41.855Z,19.7
2017-05-16T08:28:49.938Z,19.8
2017-05-16T08:29:58.027Z,19.7
2017-05-16T08:31:06.207Z,19.7
2017-05-16T08:32:14.198Z,19.8
2017-05-16T08:33:22.284Z,19.8
2017-05-16T08:34:30.370Z,19.8
2017-05-16T08:35:38.457Z,19.8
2017-05-16T08:36:46.541Z,19.8
2017-05-16T08:37:54.628Z,19.8
2017-05-16T08:39:02.709Z,19.8
2017-05-16T08:40:10.800Z,19.9
2017-05-16T08:41:18.913Z,19.9
2017-05-16T08:42:26.980Z,19.9
2017-05-16T08:43:35.060Z,19.9
2017-05-16T08:44:43.162Z,19.9
2017-05-16T08:45:51.232Z,19.9
2017-05-16T08:46:59.314Z,20.0
2017-05-16T08:48:07.472Z,20.0
2017-05-16T08:49:15.488Z,20.0
2017-05-16T08:50:23.571Z,20.0
2017-05-16T08:51:31.665Z,19.9
2017-05-16T08:52:39.744Z,20.0
2017-05-16T08:53:47.831Z,20.0
2017-05-16T08:54:55.916Z,20.0
2017-05-16T08:56:04.000Z,19.9
2017-05-16T08:57:12.085Z,20.0
2017-05-16T08:58:20.172Z,20.0
2017-05-16T08:59:28.260Z,20.0
2017-05-16T09:00:36.352Z,20.1
2017-05-16T09:01:44.442Z,20.0
2017-05-16T09:02:52.528Z,20.1
2017-05-16T09:04:00.614Z,20.0
2017-05-16T09:05:08.698Z,20.1
2017-05-16T09:06:16.788Z,20.0
2017-05-16T09:07:24.874Z,20.0
2017-05-16T09:08:32.960Z,20.1
2017-05-16T09:09:41.046Z,20.1
2017-05-16T09:10:49.131Z,20.1
2017-05-16T09:11:57.242Z,20.1
2017-05-16T09:13:05.302Z,20.1
2017-05-16T09:14:13.388Z,20.1
2017-05-16T09:15:21.476Z,20.1
2017-05-16T09:16:29.566Z,20.1
2017-05-16T09:17:37.648Z,20.1
2017-05-16T09:18:45.734Z,20.2
2017-05-16T09:19:53.822Z,20.1
2017-05-16T09:21:01.909Z,20.2
2017-05-16T09:22:09.993Z,20.1
2017-05-16T09:23:18.076Z,20.2
2017-05-16T09:24:26.163Z,20.1
2017-05-16T09:25:34.250Z,20.2
2017-05-16T09:26:42.338Z,20.2
2017-05-16T09:27:50.421Z,20.2
2017-05-16T09:28:58.507Z,20.1
2017-05-16T09:30:06.602Z,20.2
2017-05-16T09:31:14.681Z,20.2
2017-05-16T09:32:22.764Z,20.2
2017-05-16T09:33:30.850Z,20.3
2017-05-16T09:34:38.936Z,20.2
2017-05-16T09:35:47.049Z,20.3
2017-05-16T09:36:55.110Z,20.3
2017-05-16T09:38:03.200Z,20.3
2017-05-16T09:39:11.283Z,20.3
2017-05-16T09:40:19.372Z,20.3
2017-05-16T09:41:27.458Z,20.3
2017-05-16T09:42:35.549Z,20.3
2017-05-16T09:43:43.634Z,20.3
2017-05-16T09:44:51.724Z,20.3
2017-05-16T09:45:59.807Z,20.4
2017-05-16T09:47:07.892Z,20.3
2017-05-16T09:48:15.979Z,20.4
2017-05-16T09:49:24.065Z,20.4
2017-05-16T09:50:32.150Z,20.3
2017-05-16T09:51:40.235Z,20.3
2017-05-16T09:52:48.348Z,20.4
2017-05-16T09:53:56.407Z,20.3
2017-05-16T09:55:04.494Z,20.3
2017-05-16T09:56:12.580Z,20.4
2017-05-16T09:57:20.680Z,20.4
2017-05-16T09:58:28.786Z,20.3
2017-05-16T09:59:36.839Z,20.3
2017-05-16T10:00:44.925Z,20.4
2017-05-16T10:01:53.012Z,20.3
2017-05-16T10:03:01.102Z,20.4
2017-05-16T10:04:09.183Z,20.4
2017-05-16T10:05:17.271Z,20.5
2017-05-16T10:06:25.360Z,20.4
2017-05-16T10:07:33.447Z,20.5
2017-05-16T10:08:41.532Z,20.4
2017-05-16T10:09:49.615Z,20.4
2017-05-16T10:10:57.703Z,20.4
2017-05-16T10:12:05.795Z,20.3
2017-05-16T10:13:13.883Z,20.4
2017-05-16T10:14:21.970Z,20.5
2017-05-16T10:15:30.056Z,20.4
2017-05-16T10:16:38.149Z,20.5
2017-05-16T10:17:46.229Z,20.5
2017-05-16T10:18:54.315Z,20.4
2017-05-16T10:20:02.398Z,20.4
2017-05-16T10:21:10.492Z,20.5
2017-05-16T10:22:18.577Z,20.5
2017-05-16T10:23:26.657Z,20.5
2017-05-16T10:24:34.744Z,20.5
2017-05-16T10:25:42.830Z,20.6
2017-05-16T10:26:50.917Z,20.5
2017-05-16T10:27:59.003Z,20.5
2017-05-16T10:29:07.088Z,20.6
2017-05-16T10:30:15.178Z,20.5
2017-05-16T10:31:23.266Z,20.5
2017-05-16T10:32:31.352Z,20.5
2017-05-16T10:33:39.439Z,20.4
2017-05-16T10:34:47.582Z,20.5
2017-05-16T10:37:03.695Z,20.6
2017-05-16T10:38:11.783Z,20.6
2017-05-16T10:39:19.870Z,20.6
2017-05-16T10:40:27.962Z,20.6
2017-05-16T10:41:36.046Z,20.6
2017-05-16T10:42:44.129Z,20.6
2017-05-16T10:43:52.215Z,20.6
2017-05-16T10:45:00.618Z,20.6
2017-05-16T10:46:08.396Z,20.6
2017-05-16T10:47:16.472Z,20.7
2017-05-16T10:48:24.557Z,20.6
2017-05-16T10:49:32.646Z,20.6
2017-05-16T10:50:40.733Z,20.7
2017-05-16T10:51:48.819Z,20.7
2017-05-16T10:52:56.906Z,20.7
2017-05-16T10:54:05.048Z,20.7
2017-05-16T10:55:13.085Z,20.7
2017-05-16T10:56:21.166Z,20.6
2017-05-16T10:57:29.251Z,20.7
2017-05-16T10:58:37.338Z,20.8
2017-05-16T10:59:45.424Z,20.7
2017-05-16T11:00:53.509Z,20.7
2017-05-16T11:02:01.597Z,20.7
2017-05-16T11:03:09.683Z,20.7
2017-05-16T11:04:17.771Z,20.7
2017-05-16T11:05:25.857Z,20.8
2017-05-16T11:06:33.949Z,20.7
2017-05-16T11:07:42.034Z,20.8
2017-05-16T11:08:50.128Z,20.8
2017-05-16T11:09:58.216Z,20.7
2017-05-16T11:11:06.301Z,20.7
2017-05-16T11:12:14.389Z,20.7
2017-05-16T11:13:22.472Z,20.7
2017-05-16T11:14:30.562Z,20.7
2017-05-16T11:15:38.650Z,20.8
2017-05-16T11:16:46.736Z,20.8
2017-05-16T11:17:54.823Z,20.7
2017-05-16T11:19:02.913Z,20.8
2017-05-16T11:20:10.998Z,20.8
2017-05-16T11:21:19.085Z,20.8
2017-05-16T11:22:27.169Z,20.9
2017-05-16T11:23:35.263Z,20.8
2017-05-16T11:24:43.352Z,20.8
2017-05-16T11:25:51.434Z,20.8
2017-05-16T11:26:59.521Z,20.8
2017-05-16T11:28:07.609Z,20.8
2017-05-16T11:29:15.696Z,20.8
2017-05-16T11:30:23.790Z,20.9
2017-05-16T11:31:31.865Z,20.8
2017-05-16T11:32:39.952Z,20.9
2017-05-16T11:33:48.039Z,20.8
2017-05-16T11:34:56.124Z,20.8
2017-05-16T11:36:04.213Z,20.9
2017-05-16T11:37:12.299Z,20.9
2017-05-16T11:38:20.385Z,20.9
2017-05-16T11:39:28.474Z,20.9
2017-05-16T11:40:36.566Z,20.9
2017-05-16T11:41:44.655Z,20.8
2017-05-16T11:42:52.745Z,20.9
2017-05-16T11:44:00.832Z,20.9
2017-05-16T11:45:08.918Z,20.9
2017-05-16T11:46:17.002Z,20.9
2017-05-16T11:47:25.089Z,20.9
2017-05-16T11:48:33.177Z,20.9
2017-05-16T11:49:41.265Z,20.9
2017-05-16T11:50:49.350Z,20.9
2017-05-16T11:51:57.436Z,20.9
2017-05-16T11:53:05.523Z,20.9
2017-05-16T11:54:13.610Z,20.9
2017-05-16T11:55:21.699Z,20.9
2017-05-16T11:56:29.785Z,20.9
2017-05-16T11:57:37.871Z,20.9
2017-05-16T11:58:47.508Z,20.9
2017-05-16T11:59:54.059Z,21.0
2017-05-16T12:01:02.129Z,20.9
2017-05-16T12:02:10.216Z,21.0
2017-05-16T12:03:18.299Z,20.9
2017-05-16T12:04:26.387Z,20.9
2017-05-16T12:05:34.474Z,21.1
2017-05-16T12:06:42.570Z,21.0
2017-05-16T12:07:50.647Z,20.9
2017-05-16T12:08:58.733Z,20.9
2017-05-16T12:10:06.823Z,21.0
2017-05-16T12:11:14.909Z,21.1
2017-05-16T12:12:22.998Z,21.0
2017-05-16T12:13:31.089Z,21.0
2017-05-16T12:14:39.174Z,21.0
2017-05-16T12:15:47.260Z,21.0
2017-05-16T12:16:55.423Z,21.0
2017-05-16T12:18:03.434Z,21.1
2017-05-16T12:19:11.521Z,21.0
2017-05-16T12:20:19.609Z,21.1
2017-05-16T12:21:27.695Z,21.1
2017-05-16T12:22:35.797Z,21.1
2017-05-16T12:23:43.875Z,21.0
2017-05-16T12:24:51.960Z,21.1
2017-05-16T12:26:00.046Z,21.1
2017-05-16T12:27:08.131Z,21.1
2017-05-16T12:28:16.221Z,21.1
2017-05-16T12:29:24.305Z,21.1
2017-05-16T12:30:32.392Z,21.1
2017-05-16T12:31:40.480Z,21.1
2017-05-16T12:32:48.564Z,21.0
2017-05-16T12:33:56.673Z,21.1
2017-05-16T12:35:04.749Z,21.1
2017-05-16T12:36:12.827Z,21.2
2017-05-16T12:37:20.912Z,21.2
2017-05-16T12:38:29.001Z,21.2
2017-05-16T12:39:37.087Z,21.1
2017-05-16T12:40:45.175Z,21.1
2017-05-16T12:41:53.260Z,21.2
2017-05-16T12:43:01.347Z,21.1
2017-05-16T12:44:09.433Z,21.2
2017-05-16T12:45:17.520Z,21.1
2017-05-16T12:46:25.606Z,21.1
2017-05-16T12:47:33.716Z,21.2
2017-05-16T12:48:41.792Z,21.1
2017-05-16T12:49:49.873Z,21.2
2017-05-16T12:50:57.961Z,21.1
2017-05-16T12:52:06.048Z,21.1
2017-05-16T12:53:14.132Z,21.3
2017-05-16T12:54:22.217Z,21.3
2017-05-16T12:55:30.305Z,21.2
2017-05-16T12:56:38.393Z,21.2
2017-05-16T12:57:46.479Z,21.2
2017-05-16T12:58:54.567Z,21.3
2017-05-16T13:00:02.658Z,21.3
2017-05-16T13:01:10.746Z,21.2
2017-05-16T13:02:18.831Z,21.2
2017-05-16T13:03:26.918Z,21.2
2017-05-16T13:04:35.006Z,21.2
2017-05-16T13:05:43.091Z,21.2
2017-05-16T13:06:51.181Z,21.2
2017-05-16T13:07:59.266Z,21.4
2017-05-16T13:09:07.359Z,21.3
2017-05-16T13:10:15.446Z,21.3
2017-05-16T13:11:23.532Z,21.3
2017-05-16T13:12:31.620Z,21.3
2017-05-16T13:13:39.705Z,21.4
2017-05-16T13:14:47.793Z,21.3
2017-05-16T13:15:55.881Z,21.3
2017-05-16T13:17:03.969Z,21.3
2017-05-16T13:18:12.057Z,21.3
2017-05-16T13:19:20.155Z,21.3
2017-05-16T13:20:28.228Z,21.3
2017-05-16T13:21:36.315Z,21.4
2017-05-16T13:22:44.402Z,21.3
2017-05-16T13:23:52.491Z,21.3
2017-05-16T13:25:00.576Z,21.3
2017-05-16T13:26:08.662Z,21.3
2017-05-16T13:27:16.749Z,21.3
2017-05-16T13:28:24.838Z,21.4
2017-05-16T13:29:32.922Z,21.4
2017-05-16T13:30:41.060Z,21.4
2017-05-16T13:31:49.097Z,21.4
2017-05-16T13:32:57.183Z,21.4
2017-05-16T13:34:05.270Z,21.4
2017-05-16T13:35:13.358Z,21.4
2017-05-16T13:36:21.450Z,21.4
2017-05-16T13:37:29.533Z,21.4
2017-05-16T13:38:37.666Z,21.4
2017-05-16T13:39:45.705Z,21.4
2017-05-16T13:40:53.793Z,21.4
2017-05-16T13:42:01.877Z,21.3
2017-05-16T13:43:09.965Z,21.4
2017-05-16T13:44:18.050Z,21.4
2017-05-16T13:45:26.139Z,21.4
2017-05-16T13:46:34.226Z,21.4
2017-05-16T13:47:42.313Z,21.4
2017-05-16T13:48:50.400Z,21.4
2017-05-16T13:49:58.484Z,21.4
2017-05-16T13:51:06.570Z,21.4
2017-05-16T13:52:14.658Z,21.5
2017-05-16T13:53:22.743Z,21.5
2017-05-16T13:54:30.832Z,21.5
2017-05-16T13:55:38.919Z,21.5
2017-05-16T13:56:47.008Z,21.4
2017-05-16T13:57:55.094Z,21.5
2017-05-16T13:59:03.183Z,21.5
2017-05-16T14:00:11.265Z,21.5
2017-05-16T14:01:19.359Z,21.4
2017-05-16T14:02:27.441Z,21.5
2017-05-16T14:03:35.532Z,21.6
2017-05-16T14:04:43.619Z,21.5
2017-05-16T14:05:51.709Z,21.5
2017-05-16T14:06:59.792Z,21.5
2017-05-16T14:08:07.880Z,21.5
2017-05-16T14:09:15.966Z,21.6
2017-05-16T14:10:24.053Z,21.5
2017-05-16T14:11:32.140Z,21.5
2017-05-16T14:12:40.228Z,21.6
2017-05-16T14:13:48.324Z,21.6
2017-05-16T14:14:56.403Z,21.6
2017-05-16T14:16:04.489Z,21.5
2017-05-16T14:17:12.577Z,21.6
2017-05-16T14:18:20.665Z,21.6
2017-05-16T14:19:28.758Z,21.5
2017-05-16T14:20:36.840Z,21.5
2017-05-16T14:21:44.924Z,21.6
2017-05-16T14:22:53.011Z,21.5
2017-05-16T14:24:01.098Z,21.6
2017-05-16T14:25:09.190Z,21.6
2017-05-16T14:26:17.275Z,21.6
2017-05-16T14:27:25.357Z,21.5
2017-05-16T14:28:33.446Z,21.5
2017-05-16T14:29:41.540Z,21.6
2017-05-16T14:30:49.618Z,21.6
2017-05-16T14:31:57.705Z,21.6
2017-05-16T14:33:05.790Z,21.7
2017-05-16T14:34:13.880Z,21.6
2017-05-16T14:35:21.967Z,21.6
2017-05-16T14:36:30.056Z,21.6
2017-05-16T14:37:38.140Z,21.6
2017-05-16T14:38:46.226Z,21.5
2017-05-16T14:39:54.338Z,21.6
2017-05-16T14:41:02.398Z,21.6
2017-05-16T14:42:10.487Z,21.6
2017-05-16T14:43:18.576Z,21.6
2017-05-16T14:44:26.661Z,21.6
2017-05-16T14:45:34.750Z,21.6
2017-05-16T14:46:42.837Z,21.7
2017-05-16T14:47:50.922Z,21.6
2017-05-16T14:48:59.009Z,21.6
2017-05-16T14:50:07.120Z,21.7
2017-05-16T14:51:15.184Z,21.8
2017-05-16T14:52:23.268Z,21.6
2017-05-16T14:53:31.356Z,21.7
2017-05-16T14:54:39.444Z,21.7
2017-05-16T14:55:47.530Z,21.6
2017-05-16T14:56:55.620Z,21.7
2017-05-16T14:58:03.706Z,21.6
2017-05-16T14:59:11.792Z,21.7
2017-05-16T15:00:19.879Z,21.7
2017-05-16T15:01:27.968Z,21.7
2017-05-16T15:02:36.055Z,21.6
2017-05-16T15:03:44.143Z,21.6
2017-05-16T15:04:52.252Z,21.6
2017-05-16T15:06:00.316Z,21.6
2017-05-16T15:07:08.404Z,21.7